Time;durP1;ratioP1;P1;durP2;ratioP2;P2;SDS_P1;SDS_P2;PMS_P1;PMS_P2;Temp;Humidity;BMP_temperature;BMP_pressure;BME280_temperature;BME280_humidity;BME280_pressure;Samples;Min_cycle;Max_cycle;Signal;HPM_P1;HPM_P2
2022/07/30 00:01:34;;;;;;;18.25;5.00;;;;;;;;;;5051168;28;20049;-67
2022/07/30 00:04:02;;;;;;;14.73;5.00;;;;;;;;;;5051255;28;20090;-67
2022/07/30 00:06:31;;;;;;;9.77;4.93;;;;;;;;;;5051306;28;20041;-67
2022/07/30 00:08:59;;;;;;;8.52;4.75;;;;;;;;;;5051285;28;20037;-67
2022/07/30 00:11:26;;;;;;;11.05;4.43;;;;;;;;;;5051114;28;20037;-67
2022/07/30 00:13:55;;;;;;;12.82;5.53;;;;;;;;;;5050953;28;20037;-67
2022/07/30 00:16:22;;;;;;;14.18;5.22;;;;;;;;;;5051534;28;20041;-67
2022/07/30 00:18:50;;;;;;;8.35;4.45;;;;;;;;;;5119522;27;20037;-67
2022/07/30 00:21:18;;;;;;;11.10;4.80;;;;;;;;;;5051206;28;20040;-67
2022/07/30 00:24:02;;;;;;;;;;;;;;;;;;5051324;28;20041;-67
2022/07/30 00:26:30;;;;;;;8.95;4.72;;;;;;;;;;5050953;28;19920;-67
2022/07/30 00:28:57;;;;;;;13.20;5.53;;;;;;;;;;5050976;28;20066;-67
2022/07/30 00:31:25;;;;;;;15.80;5.40;;;;;;;;;;5050981;28;20037;-67
2022/07/30 00:33:53;;;;;;;7.05;4.80;;;;;;;;;;5119593;27;20531;-67
2022/07/30 00:36:21;;;;;;;7.25;5.70;;;;;;;;;;5050789;28;20044;-67
2022/07/30 00:38:49;;;;;;;8.98;5.68;;;;;;;;;;5050850;28;20517;-67
2022/07/30 00:41:17;;;;;;;10.07;5.60;;;;;;;;;;5119537;27;20033;-66
2022/07/30 00:43:44;;;;;;;12.32;5.47;;;;;;;;;;5119549;27;20040;-67
2022/07/30 00:46:13;;;;;;;11.90;5.78;;;;;;;;;;5119462;27;20044;-67
2022/07/30 00:48:41;;;;;;;8.25;5.53;;;;;;;;;;5119362;27;20041;-67
2022/07/30 00:51:09;;;;;;;14.88;5.95;;;;;;;;;;5050005;28;20397;-67
2022/07/30 00:53:37;;;;;;;23.23;7.07;;;;;;;;;;5119136;27;20049;-67
2022/07/30 00:56:05;;;;;;;19.48;5.90;;;;;;;;;;5119369;27;20044;-67
2022/07/30 00:58:32;;;;;;;12.50;6.13;;;;;;;;;;5119373;27;20049;-69
2022/07/30 01:01:00;;;;;;;7.95;6.43;;;;;;;;;;5119213;27;20132;-67
2022/07/30 01:03:28;;;;;;;14.45;6.03;;;;;;;;;;5119336;27;20049;-67
2022/07/30 01:05:55;;;;;;;10.57;6.32;;;;;;;;;;5118860;27;20045;-66
2022/07/30 01:08:23;;;;;;;9.85;7.03;;;;;;;;;;5119197;27;20045;-66
2022/07/30 01:10:51;;;;;;;15.07;7.20;;;;;;;;;;5119025;27;20045;-67
2022/07/30 01:13:18;;;;;;;11.82;6.90;;;;;;;;;;5050293;28;20053;-67
2022/07/30 01:15:46;;;;;;;10.45;6.60;;;;;;;;;;5050309;28;20093;-69
2022/07/30 01:18:14;;;;;;;10.35;7.05;;;;;;;;;;5102110;28;20076;-67
2022/07/30 01:20:49;;;;;;;11.13;7.28;;;;;;;;;;5119169;27;20498;-67
2022/07/30 01:23:27;;;;;;;12.50;7.25;;;;;;;;;;5119278;27;20135;-67
2022/07/30 01:26:15;;;;;;;9.30;7.38;;;;;;;;;;5050020;28;20068;-67
2022/07/30 01:28:45;;;;;;;12.05;7.82;;;;;;;;;;5118925;27;20498;-67
2022/07/30 01:31:13;;;;;;;9.27;7.90;;;;;;;;;;5118601;27;20045;-67
2022/07/30 01:33:42;;;;;;;11.20;7.57;;;;;;;;;;5118767;27;20067;-67
2022/07/30 01:36:11;;;;;;;12.50;8.45;;;;;;;;;;5118785;27;20045;-67
2022/07/30 01:38:39;;;;;;;10.48;8.10;;;;;;;;;;5119114;27;20075;-67
2022/07/30 01:41:07;;;;;;;9.57;8.00;;;;;;;;;;5118847;27;20097;-67
2022/07/30 01:43:35;;;;;;;10.48;8.25;;;;;;;;;;5118890;27;20041;-67
2022/07/30 01:46:05;;;;;;;10.77;8.80;;;;;;;;;;5118466;27;20053;-67
2022/07/30 01:48:39;;;;;;;13.77;9.27;;;;;;;;;;5118652;27;20041;-67
2022/07/30 01:51:11;;;;;;;10.60;8.52;;;;;;;;;;5118536;27;20575;-67
2022/07/30 01:53:42;;;;;;;12.30;8.38;;;;;;;;;;5118461;27;20049;-67
2022/07/30 01:56:11;;;;;;;11.02;9.00;;;;;;;;;;5118389;27;20406;-67
2022/07/30 01:58:43;;;;;;;11.60;8.68;;;;;;;;;;5118325;27;20052;-67
2022/07/30 02:01:18;;;;;;;11.75;9.48;;;;;;;;;;5118311;27;20075;-67
2022/07/30 02:03:46;;;;;;;13.10;8.98;;;;;;;;;;5117996;27;20045;-67
2022/07/30 02:06:17;;;;;;;12.88;9.10;;;;;;;;;;5118210;28;20052;-67
2022/07/30 02:08:50;;;;;;;12.10;9.63;;;;;;;;;;5118515;28;20048;-67
2022/07/30 02:14:24;;;;;;;11.80;9.98;;;;;;;;;;5118170;28;20049;-67
2022/07/30 02:16:56;;;;;;;14.65;10.23;;;;;;;;;;5049587;28;20049;-67
2022/07/30 02:19:27;;;;;;;13.05;9.35;;;;;;;;;;5118392;28;20578;-67
2022/07/30 02:22:04;;;;;;;12.80;9.63;;;;;;;;;;5118187;28;20114;-67
2022/07/30 02:24:37;;;;;;;13.07;9.65;;;;;;;;;;5118476;28;20051;-67
2022/07/30 02:27:10;;;;;;;10.68;9.57;;;;;;;;;;5118325;28;20037;-68
2022/07/30 02:29:38;;;;;;;13.15;9.75;;;;;;;;;;5118300;28;20077;-66
2022/07/30 02:32:08;;;;;;;19.50;11.23;;;;;;;;;;5118160;28;20033;-66
2022/07/30 02:34:38;;;;;;;15.52;11.02;;;;;;;;;;5118150;28;20078;-67
2022/07/30 02:37:07;;;;;;;14.93;11.23;;;;;;;;;;5118302;28;20045;-65
2022/07/30 02:39:37;;;;;;;13.10;10.63;;;;;;;;;;5117857;28;20551;-66
2022/07/30 02:42:06;;;;;;;12.18;10.32;;;;;;;;;;5118136;28;20064;-66
2022/07/30 02:44:35;;;;;;;15.48;10.85;;;;;;;;;;5118034;28;20136;-66
2022/07/30 02:47:02;;;;;;;12.73;10.90;;;;;;;;;;5117967;28;20049;-66
2022/07/30 02:50:01;;;;;;;14.63;10.75;;;;;;;;;;5058880;27;20122;-66
2022/07/30 02:52:29;;;;;;;12.90;10.68;;;;;;;;;;5118166;28;20117;-66
2022/07/30 02:54:57;;;;;;;15.23;10.98;;;;;;;;;;5117557;28;20043;-66
2022/07/30 02:57:25;;;;;;;15.15;10.60;;;;;;;;;;5118530;28;20068;-66
2022/07/30 02:59:53;;;;;;;15.27;11.10;;;;;;;;;;5117948;28;20045;-67
2022/07/30 03:02:21;;;;;;;11.60;10.13;;;;;;;;;;5117968;28;20041;-67
2022/07/30 03:04:56;;;;;;;;;;;;;;;;;;5102821;28;20045;-68
2022/07/30 03:07:24;;;;;;;14.57;10.63;;;;;;;;;;5049137;28;19927;-66
2022/07/30 03:09:54;;;;;;;14.38;11.07;;;;;;;;;;5117777;28;20037;-66
2022/07/30 03:12:24;;;;;;;13.90;11.02;;;;;;;;;;5118369;28;20045;-67
2022/07/30 03:14:52;;;;;;;12.35;10.95;;;;;;;;;;5120963;27;20045;-67
2022/07/30 03:17:21;;;;;;;12.68;10.95;;;;;;;;;;5121696;27;20466;-66
2022/07/30 03:19:50;;;;;;;13.90;11.52;;;;;;;;;;5121691;27;20045;-67
2022/07/30 03:22:18;;;;;;;14.68;10.90;;;;;;;;;;5121645;27;20044;-67
2022/07/30 03:24:46;;;;;;;15.50;11.05;;;;;;;;;;5121242;27;20132;-68
2022/07/30 03:27:14;;;;;;;14.38;11.45;;;;;;;;;;5052649;28;20444;-67
2022/07/30 03:29:42;;;;;;;15.35;11.65;;;;;;;;;;5121271;27;20450;-67
2022/07/30 03:32:10;;;;;;;16.23;11.52;;;;;;;;;;5121421;27;20098;-68
2022/07/30 03:34:42;;;;;;;14.30;10.75;;;;;;;;;;5121180;27;20376;-67
2022/07/30 03:37:12;;;;;;;12.93;11.35;;;;;;;;;;5121035;27;20041;-68
2022/07/30 03:39:40;;;;;;;16.00;11.55;;;;;;;;;;5120962;27;20089;-67
2022/07/30 03:42:08;;;;;;;14.48;10.82;;;;;;;;;;5120152;27;20401;-66
2022/07/30 03:44:37;;;;;;;12.05;10.40;;;;;;;;;;5119302;27;20484;-66
2022/07/30 03:47:06;;;;;;;12.50;11.02;;;;;;;;;;5119948;27;20136;-66
2022/07/30 03:49:41;;;;;;;15.65;11.65;;;;;;;;;;5120404;27;20459;-66
2022/07/30 03:52:10;;;;;;;13.45;11.13;;;;;;;;;;5120813;27;20048;-65
2022/07/30 03:54:37;;;;;;;15.02;11.70;;;;;;;;;;5120801;27;20128;-66
2022/07/30 03:57:05;;;;;;;13.70;11.52;;;;;;;;;;5052246;28;20085;-66
2022/07/30 03:59:39;;;;;;;21.67;11.60;;;;;;;;;;5120595;27;20144;-66
2022/07/30 04:02:06;;;;;;;13.00;11.63;;;;;;;;;;5121096;27;20082;-65
2022/07/30 04:04:52;;;;;;;14.13;12.02;;;;;;;;;;5051963;28;20102;-64
2022/07/30 04:07:20;;;;;;;13.75;12.32;;;;;;;;;;5120370;27;20056;-66
2022/07/30 04:09:48;;;;;;;12.02;10.75;;;;;;;;;;5116665;27;20044;-66
2022/07/30 04:12:47;;;;;;;19.27;13.05;;;;;;;;;;5099845;27;20395;-66
2022/07/30 04:15:15;;;;;;;18.80;11.75;;;;;;;;;;5119327;27;20454;-66
2022/07/30 04:18:04;;;;;;;14.23;11.60;;;;;;;;;;5119233;27;20113;-65
2022/07/30 04:20:34;;;;;;;14.50;11.95;;;;;;;;;;5119515;27;20253;-67
2022/07/30 04:23:02;;;;;;;14.02;11.63;;;;;;;;;;5119405;27;20041;-67
2022/07/30 04:25:30;;;;;;;14.55;12.02;;;;;;;;;;5127643;27;20038;-65
2022/07/30 04:27:58;;;;;;;17.17;12.10;;;;;;;;;;5113350;27;20398;-67
2022/07/30 04:30:35;;;;;;;13.95;12.43;;;;;;;;;;5102881;27;20044;-67
2022/07/30 04:33:03;;;;;;;16.45;12.45;;;;;;;;;;5044073;28;20045;-66
2022/07/30 04:35:53;;;;;;;13.07;11.70;;;;;;;;;;5052549;27;20045;-67
2022/07/30 04:38:35;;;;;;;16.30;12.45;;;;;;;;;;5108835;27;20608;-67
2022/07/30 04:41:03;;;;;;;14.20;12.68;;;;;;;;;;5095014;27;20458;-67
2022/07/30 04:43:49;;;;;;;14.88;13.02;;;;;;;;;;5035858;28;20048;-66
2022/07/30 04:46:17;;;;;;;18.60;13.25;;;;;;;;;;5118596;27;20410;-66
2022/07/30 04:48:45;;;;;;;18.83;14.02;;;;;;;;;;5118960;27;20106;-67
2022/07/30 04:51:42;;;;;;;18.25;13.52;;;;;;;;;;5118798;27;20091;-66
2022/07/30 04:54:13;;;;;;;13.95;12.20;;;;;;;;;;5117015;27;20076;-65
2022/07/30 04:56:46;;;;;;;16.48;12.25;;;;;;;;;;5118911;27;20041;-67
2022/07/30 04:59:28;;;;;;;16.55;12.32;;;;;;;;;;5118509;27;20089;-67
2022/07/30 05:01:56;;;;;;;16.85;12.18;;;;;;;;;;5118458;27;20037;-67
2022/07/30 05:04:26;;;;;;;16.02;12.40;;;;;;;;;;5118267;27;20570;-66
2022/07/30 05:06:54;;;;;;;13.98;11.95;;;;;;;;;;5118243;27;20047;-66
2022/07/30 05:09:22;;;;;;;14.80;12.35;;;;;;;;;;5118117;27;20051;-66
2022/07/30 05:11:51;;;;;;;12.90;11.57;;;;;;;;;;5118024;27;20061;-66
2022/07/30 05:14:19;;;;;;;14.30;11.82;;;;;;;;;;5118014;27;20060;-67
2022/07/30 05:16:47;;;;;;;13.52;11.00;;;;;;;;;;5049318;28;20045;-67
2022/07/30 05:19:15;;;;;;;13.63;11.25;;;;;;;;;;5118093;27;20479;-67
2022/07/30 05:21:42;;;;;;;13.70;11.13;;;;;;;;;;5118218;27;20045;-68
2022/07/30 05:24:10;;;;;;;20.80;13.88;;;;;;;;;;5117997;27;20049;-67
2022/07/30 05:26:40;;;;;;;12.98;10.93;;;;;;;;;;5117959;27;20082;-67
2022/07/30 05:29:11;;;;;;;12.68;11.30;;;;;;;;;;5118045;27;20144;-66
2022/07/30 05:32:09;;;;;;;12.45;10.20;;;;;;;;;;5117913;27;20138;-66
2022/07/30 05:34:37;;;;;;;13.80;10.60;;;;;;;;;;5117680;27;20057;-68
2022/07/30 05:37:06;;;;;;;14.65;10.20;;;;;;;;;;5117644;27;20086;-68
2022/07/30 05:39:36;;;;;;;11.50;10.30;;;;;;;;;;5117606;27;20056;-66
2022/07/30 05:42:43;;;;;;;12.52;9.90;;;;;;;;;;5049403;28;20048;-66
2022/07/30 05:45:10;;;;;;;13.82;10.23;;;;;;;;;;5117542;27;20177;-66
2022/07/30 05:47:39;;;;;;;10.55;9.43;;;;;;;;;;5116664;27;20051;-68
2022/07/30 05:50:07;;;;;;;14.25;9.82;;;;;;;;;;5097495;27;20048;-68
2022/07/30 05:52:35;;;;;;;11.98;9.30;;;;;;;;;;5094396;27;20494;-67
2022/07/30 05:55:20;;;;;;;12.25;9.55;;;;;;;;;;5116501;27;20049;-67
2022/07/30 05:58:11;;;;;;;12.50;9.50;;;;;;;;;;5051640;27;20060;-67
2022/07/30 06:00:39;;;;;;;10.23;8.68;;;;;;;;;;5048532;28;20127;-67
2022/07/30 06:03:07;;;;;;;10.75;8.90;;;;;;;;;;5117034;27;20045;-66
2022/07/30 06:05:56;;;;;;;12.02;9.23;;;;;;;;;;5118367;27;20041;-67
2022/07/30 06:08:24;;;;;;;13.35;9.90;;;;;;;;;;5050483;27;20136;-67
2022/07/30 06:10:51;;;;;;;10.35;9.35;;;;;;;;;;5049964;28;20041;-68
2022/07/30 06:13:19;;;;;;;12.55;8.63;;;;;;;;;;5117224;27;20510;-67
2022/07/30 06:15:47;;;;;;;9.55;8.07;;;;;;;;;;5047881;28;20045;-67
2022/07/30 06:18:15;;;;;;;10.93;8.68;;;;;;;;;;5117006;28;20429;-67
2022/07/30 06:20:48;;;;;;;14.10;9.65;;;;;;;;;;5102725;28;20041;-67
2022/07/30 06:23:30;;;;;;;14.05;8.98;;;;;;;;;;5059924;28;20060;-66
2022/07/30 06:26:46;;;;;;;10.10;8.63;;;;;;;;;;5061444;27;20045;-69
2022/07/30 06:29:19;;;;;;;14.18;9.32;;;;;;;;;;5118859;28;20077;-67
2022/07/30 06:31:47;;;;;;;11.25;8.63;;;;;;;;;;5119258;28;20547;-67
2022/07/30 06:34:15;;;;;;;15.88;11.35;;;;;;;;;;5050265;28;20038;-68
2022/07/30 06:36:45;;;;;;;11.13;8.32;;;;;;;;;;5118883;28;20472;-67
2022/07/30 06:39:17;;;;;;;8.25;7.45;;;;;;;;;;5118364;28;20049;-69
2022/07/30 06:42:25;;;;;;;9.27;7.53;;;;;;;;;;5094506;28;20128;-66
2022/07/30 06:45:15;;;;;;;14.93;9.38;;;;;;;;;;5055151;27;20543;-69
2022/07/30 06:48:06;;;;;;;13.02;7.63;;;;;;;;;;5069137;27;20060;-70
2022/07/30 06:50:35;;;;;;;10.88;8.55;;;;;;;;;;5105509;27;20533;-69
2022/07/30 06:53:03;;;;;;;10.05;7.47;;;;;;;;;;5122193;27;20073;-69
2022/07/30 06:55:51;;;;;;;9.10;6.95;;;;;;;;;;5052834;28;20084;-68
2022/07/30 06:58:30;;;;;;;9.52;7.65;;;;;;;;;;5122405;27;20132;-69
2022/07/30 07:01:19;;;;;;;8.35;6.82;;;;;;;;;;5052456;27;20507;-68
2022/07/30 07:03:47;;;;;;;10.13;7.45;;;;;;;;;;5119546;27;20080;-70
2022/07/30 07:06:15;;;;;;;9.68;7.20;;;;;;;;;;5115650;27;20064;-70
2022/07/30 07:08:42;;;;;;;11.45;6.78;;;;;;;;;;5120060;27;20524;-70
2022/07/30 07:11:13;;;;;;;8.75;7.38;;;;;;;;;;5080798;27;20466;-70
2022/07/30 07:13:46;;;;;;;7.47;6.45;;;;;;;;;;5093454;27;20069;-71
2022/07/30 07:16:26;;;;;;;10.18;8.63;;;;;;;;;;5121608;27;20056;-70
2022/07/30 07:18:55;;;;;;;8.98;6.70;;;;;;;;;;5121740;27;20136;-70
2022/07/30 07:21:23;;;;;;;8.98;6.78;;;;;;;;;;5121259;27;20048;-70
2022/07/30 07:23:53;;;;;;;9.00;6.90;;;;;;;;;;5121617;27;20045;-70
2022/07/30 07:26:44;;;;;;;7.97;6.30;;;;;;;;;;5107107;27;20072;-71
2022/07/30 07:29:13;;;;;;;9.32;6.20;;;;;;;;;;5121533;27;20044;-71
2022/07/30 07:31:40;;;;;;;8.10;6.25;;;;;;;;;;5121398;27;20405;-71
2022/07/30 07:34:29;;;;;;;8.88;6.00;;;;;;;;;;5120159;27;20448;-70
2022/07/30 07:36:57;;;;;;;10.07;6.80;;;;;;;;;;5097024;27;20037;-71
2022/07/30 07:39:25;;;;;;;8.30;6.25;;;;;;;;;;5096982;27;20043;-71
2022/07/30 07:41:54;;;;;;;11.23;6.82;;;;;;;;;;5051752;28;20073;-72
2022/07/30 07:44:24;;;;;;;7.50;5.70;;;;;;;;;;5121470;27;20502;-72
2022/07/30 07:46:52;;;;;;;8.20;6.40;;;;;;;;;;5102090;27;20047;-73
2022/07/30 07:49:20;;;;;;;7.93;6.43;;;;;;;;;;5100050;27;20124;-68
2022/07/30 07:51:51;;;;;;;8.15;6.57;;;;;;;;;;5120926;27;20442;-68
2022/07/30 07:54:20;;;;;;;7.57;6.03;;;;;;;;;;5125089;27;20088;-68
2022/07/30 07:56:51;;;;;;;10.65;5.75;;;;;;;;;;5116134;27;20077;-69
2022/07/30 07:59:23;;;;;;;6.68;6.05;;;;;;;;;;5124577;27;20043;-70
2022/07/30 08:02:03;;;;;;;8.95;7.63;;;;;;;;;;5104258;27;20497;-69
2022/07/30 08:04:49;;;;;;;7.55;6.00;;;;;;;;;;5051431;28;20102;-69
2022/07/30 08:07:36;;;;;;;9.80;6.30;;;;;;;;;;5051348;28;20513;-70
2022/07/30 08:10:03;;;;;;;8.93;5.95;;;;;;;;;;5050930;28;20070;-69
2022/07/30 08:12:49;;;;;;;7.53;6.13;;;;;;;;;;5051239;28;20078;-69
2022/07/30 08:15:55;;;;;;;7.28;5.60;;;;;;;;;;5051941;27;20132;-69
2022/07/30 08:18:28;;;;;;;7.70;5.32;;;;;;;;;;5050957;28;20386;-69
2022/07/30 08:21:09;;;;;;;6.35;5.75;;;;;;;;;;5102031;27;20057;-69
2022/07/30 08:23:36;;;;;;;8.73;5.45;;;;;;;;;;5092356;27;20047;-69
2022/07/30 08:26:09;;;;;;;7.25;6.05;;;;;;;;;;5098487;27;20056;-69
2022/07/30 08:28:37;;;;;;;6.65;6.05;;;;;;;;;;5050687;28;20037;-69
2022/07/30 08:31:06;;;;;;;7.63;6.22;;;;;;;;;;5093019;27;20067;-69
2022/07/30 08:33:34;;;;;;;6.13;5.35;;;;;;;;;;5100239;27;20544;-69
2022/07/30 08:36:03;;;;;;;5.82;5.03;;;;;;;;;;5087258;27;20064;-69
2022/07/30 08:38:38;;;;;;;6.53;5.55;;;;;;;;;;5114005;27;20037;-69
2022/07/30 08:41:06;;;;;;;8.32;6.68;;;;;;;;;;5111574;27;20132;-69
2022/07/30 08:43:35;;;;;;;8.30;6.80;;;;;;;;;;5049856;28;20417;-69
2022/07/30 08:46:07;;;;;;;7.63;6.03;;;;;;;;;;5086795;27;20614;-69
2022/07/30 08:48:42;;;;;;;7.75;5.47;;;;;;;;;;5097372;27;20138;-69
2022/07/30 08:51:12;;;;;;;5.53;4.78;;;;;;;;;;5085953;27;20045;-69
2022/07/30 08:54:00;;;;;;;7.70;5.65;;;;;;;;;;5050557;28;20049;-69
2022/07/30 08:56:29;;;;;;;7.80;5.60;;;;;;;;;;5101994;27;20521;-69
2022/07/30 08:58:57;;;;;;;9.80;7.85;;;;;;;;;;5118924;27;20398;-69
2022/07/30 09:01:25;;;;;;;7.00;5.93;;;;;;;;;;5118937;27;20037;-70
2022/07/30 09:03:55;;;;;;;7.35;5.35;;;;;;;;;;5119110;27;20049;-69
2022/07/30 09:06:25;;;;;;;6.05;5.38;;;;;;;;;;5118636;27;20368;-69
2022/07/30 09:08:53;;;;;;;6.28;5.43;;;;;;;;;;5118570;27;20045;-69
2022/07/30 09:11:21;;;;;;;6.20;5.60;;;;;;;;;;5118393;27;20044;-70
2022/07/30 09:13:50;;;;;;;6.38;5.72;;;;;;;;;;5118681;27;20049;-70
2022/07/30 09:16:19;;;;;;;8.85;5.57;;;;;;;;;;5118403;27;20041;-69
2022/07/30 09:18:48;;;;;;;14.18;5.47;;;;;;;;;;5118705;27;20060;-69
2022/07/30 09:21:17;;;;;;;9.55;5.53;;;;;;;;;;5118698;27;20041;-70
2022/07/30 09:23:55;;;;;;;5.93;5.10;;;;;;;;;;5117801;27;20045;-68
2022/07/30 09:26:53;;;;;;;6.70;6.03;;;;;;;;;;5041991;28;20066;-69
2022/07/30 09:29:39;;;;;;;6.20;4.90;;;;;;;;;;5038328;28;20066;-69
2022/07/30 09:32:46;;;;;;;5.40;4.90;;;;;;;;;;5057568;27;20052;-69
2022/07/30 09:35:37;;;;;;;7.15;6.43;;;;;;;;;;5056699;27;20056;-69
2022/07/30 09:38:11;;;;;;;;;;;;;;;;;;5050145;28;20383;-69
2022/07/30 09:40:58;;;;;;;7.50;4.85;;;;;;;;;;5048656;28;19927;-68
2022/07/30 09:43:45;;;;;;;7.45;4.72;;;;;;;;;;5049171;28;20045;-68
2022/07/30 09:46:21;;;;;;;7.00;4.72;;;;;;;;;;5108158;27;20136;-68
2022/07/30 09:48:49;;;;;;;6.38;5.03;;;;;;;;;;5122321;27;20088;-68
2022/07/30 09:51:18;;;;;;;6.13;5.45;;;;;;;;;;5102186;27;20051;-70
2022/07/30 09:54:05;;;;;;;6.25;5.63;;;;;;;;;;5106104;27;20030;-67
2022/07/30 09:56:36;;;;;;;5.47;4.90;;;;;;;;;;5098065;28;20046;-71
2022/07/30 09:59:05;;;;;;;6.47;4.97;;;;;;;;;;5115653;27;20068;-69
2022/07/30 10:01:52;;;;;;;6.53;4.85;;;;;;;;;;5115339;27;20534;-72
2022/07/30 10:04:47;;;;;;;6.18;5.30;;;;;;;;;;5043993;28;20052;-72
2022/07/30 10:07:17;;;;;;;8.80;5.28;;;;;;;;;;5118019;27;20049;-72
2022/07/30 10:09:59;;;;;;;6.25;5.63;;;;;;;;;;5049131;28;20102;-71
2022/07/30 10:12:29;;;;;;;6.65;5.40;;;;;;;;;;5117825;27;20090;-72
2022/07/30 10:14:58;;;;;;;5.88;5.00;;;;;;;;;;5117949;27;20044;-72
2022/07/30 10:17:27;;;;;;;7.15;5.30;;;;;;;;;;5117809;28;20506;-72
2022/07/30 10:20:23;;;;;;;6.97;5.53;;;;;;;;;;5037158;28;20060;-72
2022/07/30 10:23:31;;;;;;;6.63;5.80;;;;;;;;;;5042344;28;20052;-71
2022/07/30 10:26:18;;;;;;;6.18;5.22;;;;;;;;;;5053999;28;20175;-72
2022/07/30 10:29:04;;;;;;;7.63;5.38;;;;;;;;;;5039224;28;20110;-72
2022/07/30 10:31:32;;;;;;;8.68;5.65;;;;;;;;;;5052579;28;20037;-72
2022/07/30 10:34:20;;;;;;;8.35;4.97;;;;;;;;;;5052174;28;20155;-72
2022/07/30 10:36:56;;;;;;;6.97;5.05;;;;;;;;;;5052545;28;20037;-72
2022/07/30 10:39:27;;;;;;;8.93;5.40;;;;;;;;;;5052273;28;20033;-72
2022/07/30 10:42:06;;;;;;;51.15;37.97;;;;;;;;;;5121804;27;20372;-70
2022/07/30 10:44:34;;;;;;;;;;;;;;;;;;5052576;28;20068;-72
2022/07/30 10:47:08;;;;;;;9.77;6.20;;;;;;;;;;5052381;28;19925;-72
2022/07/30 10:49:37;;;;;;;7.03;6.20;;;;;;;;;;5051952;28;20045;-72
2022/07/30 10:52:09;;;;;;;6.55;5.22;;;;;;;;;;5052225;28;20037;-72
2022/07/30 10:54:38;;;;;;;6.28;5.30;;;;;;;;;;5051471;28;20206;-72
2022/07/30 10:57:11;;;;;;;6.32;5.20;;;;;;;;;;5039471;28;20124;-72
2022/07/30 10:59:57;;;;;;;6.80;5.70;;;;;;;;;;5051311;28;20140;-72
2022/07/30 11:02:27;;;;;;;6.75;6.13;;;;;;;;;;5051284;28;20045;-70
2022/07/30 11:05:17;;;;;;;7.43;5.00;;;;;;;;;;5084499;27;20451;-70
2022/07/30 11:07:53;;;;;;;6.70;5.03;;;;;;;;;;5042805;28;20041;-69
2022/07/30 11:10:41;;;;;;;7.07;5.07;;;;;;;;;;5051846;28;20112;-69
2022/07/30 11:13:10;;;;;;;6.53;4.47;;;;;;;;;;5050426;28;20041;-71
2022/07/30 11:15:57;;;;;;;6.80;5.20;;;;;;;;;;5050786;27;20068;-74
2022/07/30 11:18:26;;;;;;;8.25;5.50;;;;;;;;;;5049101;28;20033;-72
2022/07/30 11:21:24;;;;;;;7.38;5.82;;;;;;;;;;5049530;28;20051;-71
2022/07/30 11:23:55;;;;;;;9.20;5.97;;;;;;;;;;5048316;28;20432;-70
2022/07/30 11:26:38;;;;;;;9.88;6.70;;;;;;;;;;5050770;28;20047;-71
2022/07/30 11:29:27;;;;;;;382.15;345.08;;;;;;;;;;5050892;28;20114;-69
2022/07/30 11:32:18;;;;;;;33.80;30.20;;;;;;;;;;5045154;28;20056;-71
2022/07/30 11:34:45;;;;;;;12.32;11.05;;;;;;;;;;5051084;28;20109;-69
2022/07/30 11:37:17;;;;;;;31.60;28.55;;;;;;;;;;5046783;28;20081;-68
2022/07/30 11:40:01;;;;;;;630.15;570.53;;;;;;;;;;5050763;28;20045;-67
2022/07/30 11:42:39;;;;;;;116.20;105.13;;;;;;;;;;5117748;27;20045;-67
2022/07/30 11:45:16;;;;;;;18.08;15.70;;;;;;;;;;5050976;28;20044;-68
2022/07/30 11:47:48;;;;;;;15.95;14.32;;;;;;;;;;5051186;28;20084;-68
2022/07/30 11:50:19;;;;;;;11.13;9.65;;;;;;;;;;5051133;27;20609;-71
2022/07/30 11:52:54;;;;;;;16.55;14.77;;;;;;;;;;5051166;28;20482;-69
2022/07/30 11:55:26;;;;;;;96.13;87.57;;;;;;;;;;5050708;28;20395;-69
2022/07/30 11:57:55;;;;;;;106.70;96.60;;;;;;;;;;5051006;28;20124;-68
2022/07/30 12:00:22;;;;;;;142.63;127.90;;;;;;;;;;5050910;27;20120;-68
2022/07/30 12:02:50;;;;;;;123.03;113.18;;;;;;;;;;5051000;28;20517;-70
2022/07/30 12:05:24;;;;;;;13.18;11.77;;;;;;;;;;5050848;27;20120;-69
2022/07/30 12:07:58;;;;;;;172.02;157.30;;;;;;;;;;5039155;28;20037;-69
2022/07/30 12:10:26;;;;;;;14.88;13.30;;;;;;;;;;5050508;28;20041;-68
2022/07/30 12:13:06;;;;;;;111.82;101.40;;;;;;;;;;5050417;28;20033;-69
2022/07/30 12:15:35;;;;;;;26.55;24.00;;;;;;;;;;5050732;28;20037;-68
2022/07/30 12:18:03;;;;;;;8.80;7.90;;;;;;;;;;5050948;27;20041;-70
2022/07/30 12:21:01;;;;;;;48.97;44.25;;;;;;;;;;5049521;27;20045;-68
2022/07/30 12:23:29;;;;;;;14.60;11.88;;;;;;;;;;5050709;28;20037;-69
2022/07/30 12:25:57;;;;;;;9.35;7.95;;;;;;;;;;5109420;27;20030;-70
2022/07/30 12:28:26;;;;;;;15.23;8.07;;;;;;;;;;5119416;27;20473;-70
2022/07/30 12:30:54;;;;;;;14.40;12.98;;;;;;;;;;5050390;27;20574;-70
2022/07/30 12:33:22;;;;;;;16.60;14.70;;;;;;;;;;5050665;28;20041;-70
2022/07/30 12:35:51;;;;;;;7.45;5.05;;;;;;;;;;5050264;28;20510;-71
2022/07/30 12:38:20;;;;;;;70.13;63.63;;;;;;;;;;5050790;28;20444;-70
2022/07/30 12:40:50;;;;;;;66.10;59.35;;;;;;;;;;5050223;28;20041;-71
2022/07/30 12:43:18;;;;;;;69.97;63.53;;;;;;;;;;5118767;27;20041;-71
2022/07/30 12:45:45;;;;;;;38.20;34.67;;;;;;;;;;5048891;28;20478;-70
2022/07/30 12:48:20;;;;;;;51.97;46.60;;;;;;;;;;5043535;28;20367;-71
2022/07/30 12:50:48;;;;;;;48.67;44.17;;;;;;;;;;5050234;27;20135;-71
2022/07/30 12:53:15;;;;;;;16.70;14.80;;;;;;;;;;5049995;28;20440;-71
2022/07/30 12:55:43;;;;;;;53.03;47.97;;;;;;;;;;5050099;28;20044;-72
2022/07/30 12:58:11;;;;;;;61.78;55.75;;;;;;;;;;5049730;28;20033;-72
2022/07/30 13:00:46;;;;;;;16.27;11.93;;;;;;;;;;5040631;28;20033;-71
2022/07/30 13:03:21;;;;;;;10.30;9.30;;;;;;;;;;5050439;28;20137;-72
2022/07/30 13:05:51;;;;;;;32.03;24.20;;;;;;;;;;5041518;28;20447;-79
2022/07/30 13:08:42;;;;;;;100.75;14.90;;;;;;;;;;5050376;28;20063;-79
2022/07/30 13:11:09;;;;;;;25.27;22.52;;;;;;;;;;5059084;28;20098;-77
2022/07/30 13:13:37;;;;;;;6.72;5.45;;;;;;;;;;5049750;28;20041;-80
2022/07/30 13:16:05;;;;;;;8.48;5.00;;;;;;;;;;5101647;27;20577;-74
2022/07/30 13:18:34;;;;;;;5.78;5.05;;;;;;;;;;5049949;28;20029;-79
2022/07/30 13:21:03;;;;;;;10.13;5.93;;;;;;;;;;5049998;28;20491;-78
2022/07/30 13:23:31;;;;;;;7.82;6.65;;;;;;;;;;5049970;28;20056;-78
2022/07/30 13:25:58;;;;;;;12.57;6.68;;;;;;;;;;5117821;27;20045;-79
2022/07/30 13:28:26;;;;;;;8.38;7.28;;;;;;;;;;5117931;27;20069;-79
2022/07/30 13:30:55;;;;;;;8.30;6.50;;;;;;;;;;5049575;28;20169;-77
2022/07/30 13:33:23;;;;;;;8.35;5.07;;;;;;;;;;5050158;28;20072;-74
2022/07/30 13:35:51;;;;;;;7.30;4.90;;;;;;;;;;5049638;28;20040;-74
2022/07/30 13:38:18;;;;;;;5.88;4.22;;;;;;;;;;5049993;28;20435;-72
2022/07/30 13:40:47;;;;;;;5.60;4.38;;;;;;;;;;5049538;28;20117;-71
2022/07/30 13:43:14;;;;;;;5.75;3.88;;;;;;;;;;5049753;28;20041;-72
2022/07/30 13:45:42;;;;;;;4.72;4.32;;;;;;;;;;5049151;28;20168;-71
2022/07/30 13:48:10;;;;;;;4.00;3.65;;;;;;;;;;5098324;28;20486;-73
2022/07/30 13:50:37;;;;;;;7.50;4.97;;;;;;;;;;5043870;28;20095;-73
2022/07/30 13:53:05;;;;;;;5.25;3.60;;;;;;;;;;5049370;28;20465;-74
2022/07/30 13:55:32;;;;;;;4.68;3.95;;;;;;;;;;5049401;28;20045;-74
2022/07/30 13:58:00;;;;;;;5.63;4.47;;;;;;;;;;5117993;27;20041;-74
2022/07/30 14:00:31;;;;;;;7.03;4.75;;;;;;;;;;5049386;28;20041;-74
2022/07/30 14:03:03;;;;;;;11.82;6.65;;;;;;;;;;5117240;27;20068;-75
2022/07/30 14:05:32;;;;;;;6.57;4.80;;;;;;;;;;5044643;28;20041;-74
2022/07/30 14:07:59;;;;;;;4.85;4.20;;;;;;;;;;5106122;27;20045;-74
2022/07/30 14:10:27;;;;;;;10.68;5.25;;;;;;;;;;5096605;27;20047;-74
2022/07/30 14:12:55;;;;;;;13.30;5.72;;;;;;;;;;5107676;27;20132;-74
2022/07/30 14:15:27;;;;;;;5.63;4.20;;;;;;;;;;5037255;28;20091;-74
2022/07/30 14:17:55;;;;;;;6.90;4.90;;;;;;;;;;5041371;28;20402;-75
2022/07/30 14:20:23;;;;;;;4.43;4.00;;;;;;;;;;5048997;28;20037;-75
2022/07/30 14:22:55;;;;;;;8.20;4.13;;;;;;;;;;5084190;28;20038;-74
2022/07/30 14:25:23;;;;;;;6.68;4.70;;;;;;;;;;5041961;28;20071;-74
2022/07/30 14:27:51;;;;;;;6.22;4.05;;;;;;;;;;5048712;28;20057;-74
2022/07/30 14:30:18;;;;;;;5.15;4.28;;;;;;;;;;5048924;28;20037;-71
2022/07/30 14:32:47;;;;;;;5.00;4.30;;;;;;;;;;5048550;28;20497;-72
2022/07/30 14:35:14;;;;;;;6.28;5.68;;;;;;;;;;5048827;28;20394;-73
2022/07/30 14:37:42;;;;;;;8.82;5.55;;;;;;;;;;5049092;27;20053;-72
2022/07/30 14:40:10;;;;;;;5.55;4.88;;;;;;;;;;5048826;28;20073;-72
2022/07/30 14:42:39;;;;;;;7.68;4.68;;;;;;;;;;5044274;28;20042;-72
2022/07/30 14:45:07;;;;;;;5.72;4.60;;;;;;;;;;5047948;28;20049;-73
2022/07/30 14:47:35;;;;;;;5.30;4.75;;;;;;;;;;5047629;28;20049;-71
2022/07/30 14:50:03;;;;;;;7.05;4.70;;;;;;;;;;5031394;28;20034;-72
2022/07/30 14:52:33;;;;;;;9.80;6.32;;;;;;;;;;5028200;28;20038;-71
2022/07/30 14:55:01;;;;;;;6.68;4.30;;;;;;;;;;5100444;28;20135;-72
2022/07/30 14:57:30;;;;;;;5.43;4.57;;;;;;;;;;5097216;28;20037;-72
2022/07/30 14:59:57;;;;;;;7.47;4.13;;;;;;;;;;5098269;27;20086;-72
2022/07/30 15:02:25;;;;;;;7.95;5.22;;;;;;;;;;5029663;28;20042;-72
2022/07/30 15:04:52;;;;;;;9.82;4.65;;;;;;;;;;5031429;28;20048;-72
2022/07/30 15:07:20;;;;;;;5.10;4.45;;;;;;;;;;5028560;28;20073;-72
2022/07/30 15:09:48;;;;;;;6.18;4.68;;;;;;;;;;5044111;28;20093;-72